Amherst, MA (01004)

4:02 AM EDT on September 03, 2015 (GMT -0400)
Computer Science Bldg - University of Massachusetts | | Change Station
CLOSE
Current Station
Personal Weather Station
Location: Amherst, MA
Elevation: 249 ft
Nearby Weather Stations

Elev 249 ft 42.40 °N, 72.50 °W | Updated 30 seconds ago

Fog
Fog
66.0 °F
Feels Like 66.0 °F
N
0.0
Wind Variable Wind from West
Gusts 0.0 mph

Today
High -- | Low -- °F
--% Chance of Precip.
Yesterday
High -- | Low -- °F
Precip. -- in
6:17 AM 7:21 PM
Waning Gibbous, 72% visible
Pressure 29.87 in
Visibility 0.5 miles
Clouds Clear
Dew Point 64 °F
Humidity 95%
Rainfall 0.00 in
Snow Depth Not available.
UV 0 out of 12
Pollen 9.40 out of 12
Air Quality Not available.
Flu Activity Not available.
METAR KCEF 030758Z AUTO 03002KT 1/2SM R23/2000FT FG CLR 16/16 A2985 RMK AO2 SLP113
Pressure 29.87 in
Visibility 0.5 miles
Clouds Clear
Dew Point 64 °F
Humidity 95%
Rainfall 0.00 in
Snow Depth Not available.
UV 0 out of 12
Pollen 9.40 out of 12
Air Quality Not available.
Flu Activity Not available.
METAR KCEF 030758Z AUTO 03002KT 1/2SM R23/2000FT FG CLR 16/16 A2985 RMK AO2 SLP113

10-Day Weather Forecast

×

Almanac

Astronomy

Sep. 03, 2015 Rise Set
Actual Time
Civil Twilight
Nautical Twilight
Astronomical Twilight
Moon
Length of Visible Light
Length of Day
Tomorrow will be .
, % of the Moon is Illuminated

Today's Extremes

State Highs State Lows

Community

WunderPhotos

Upload Photos

1,851,919 photos uploaded!

WunderBlogs® & News

Nearby

Air Quality

  Air Quality AQ Index Pollutant
Not available.

Snow Depth

Station Depth Elevation

Earthquake Activity

City Distance Mag. Time & Date
Minimum magnitude displayed is 2.5.

Coastal Water Temperatures

Place Temperature

Stations

Nearby Weather Stations

Station Location Temp. Windchill Dew Point Humidity Wind Precip. Elev Updated Type